createdAt,value
2022-10-22T00:01:27.541Z,7.13
2022-10-22T00:03:56.444Z,9.10
2022-10-22T00:06:23.868Z,7.63
2022-10-22T00:08:53.738Z,8.15
2022-10-22T00:11:21.754Z,8.38
2022-10-22T00:13:53.379Z,10.90
2022-10-22T00:16:41.086Z,9.88
2022-10-22T00:19:10.710Z,9.68
2022-10-22T00:21:41.629Z,7.45
2022-10-22T00:24:22.123Z,5.50
2022-10-22T00:26:58.783Z,7.13
2022-10-22T00:29:26.172Z,6.65
2022-10-22T00:31:56.741Z,10.82
2022-10-22T00:34:25.108Z,7.70
2022-10-22T00:37:02.396Z,10.00
2022-10-22T00:39:30.262Z,7.80
2022-10-22T00:42:00.717Z,8.52
2022-10-22T00:45:05.723Z,8.80
2022-10-22T00:47:59.968Z,8.23
2022-10-22T00:50:52.788Z,10.38
2022-10-22T00:53:24.157Z,7.15
2022-10-22T00:55:54.637Z,7.53
2022-10-22T00:58:27.556Z,8.40
2022-10-22T01:00:56.876Z,8.18
2022-10-22T01:03:24.617Z,9.82
2022-10-22T01:06:02.505Z,8.90
2022-10-22T01:08:50.490Z,7.97
2022-10-22T01:11:31.231Z,8.70
2022-10-22T01:14:15.905Z,6.45
2022-10-22T01:17:08.667Z,7.70
2022-10-22T01:20:07.430Z,8.13
2022-10-22T01:22:46.868Z,7.55
2022-10-22T01:25:21.696Z,10.25
2022-10-22T01:28:10.924Z,9.60
2022-10-22T01:30:40.888Z,16.83
2022-10-22T01:33:13.777Z,10.25
2022-10-22T01:35:47.750Z,8.23
2022-10-22T01:38:19.736Z,12.65
2022-10-22T01:40:51.510Z,9.98
2022-10-22T01:43:23.513Z,9.77
2022-10-22T01:45:54.455Z,9.00
2022-10-22T01:49:01.300Z,11.35
2022-10-22T01:51:47.040Z,8.52
2022-10-22T01:54:23.440Z,9.05
2022-10-22T01:57:19.315Z,9.75
2022-10-22T02:00:17.674Z,9.48
2022-10-22T02:03:05.985Z,13.70
2022-10-22T02:05:46.353Z,15.02
2022-10-22T02:08:30.794Z,9.60
2022-10-22T02:11:00.755Z,12.13
2022-10-22T02:13:35.201Z,11.35
2022-10-22T02:16:04.786Z,13.25
2022-10-22T02:18:40.056Z,12.90
2022-10-22T02:21:11.259Z,11.30
2022-10-22T02:23:43.447Z,13.85
2022-10-22T02:26:19.915Z,12.85
2022-10-22T02:29:27.945Z,13.63
2022-10-22T02:32:03.319Z,11.55
2022-10-22T02:34:32.788Z,15.52
2022-10-22T02:37:02.872Z,11.88
2022-10-22T02:39:32.186Z,12.43
2022-10-22T02:42:03.277Z,11.70
2022-10-22T02:44:33.559Z,13.43
2022-10-22T02:47:01.032Z,13.38
2022-10-22T02:49:28.756Z,13.68
2022-10-22T02:51:56.310Z,15.52
2022-10-22T02:54:26.944Z,16.88
2022-10-22T02:56:54.224Z,14.85
2022-10-22T02:59:21.686Z,17.05
2022-10-22T03:01:53.523Z,14.98
2022-10-22T03:04:20.975Z,15.55
2022-10-22T03:06:49.276Z,12.77
2022-10-22T03:09:21.323Z,15.77
2022-10-22T03:11:54.043Z,14.93
2022-10-22T03:14:22.519Z,13.88
2022-10-22T03:16:50.774Z,11.63
2022-10-22T03:19:18.089Z,10.27
2022-10-22T03:21:53.863Z,10.23
2022-10-22T03:24:29.344Z,13.25
2022-10-22T03:26:56.804Z,8.82
2022-10-22T03:29:27.053Z,9.48
2022-10-22T03:32:15.755Z,11.90
2022-10-22T03:34:50.549Z,11.25
2022-10-22T03:37:57.943Z,14.60
2022-10-22T03:40:59.034Z,10.23
2022-10-22T03:44:19.031Z,13.48
2022-10-22T03:47:32.112Z,11.15
2022-10-22T03:50:31.123Z,10.98
2022-10-22T03:54:04.548Z,9.23
2022-10-22T03:56:14.375Z,13.32
2022-10-22T03:59:02.247Z,11.43
2022-10-22T04:01:34.286Z,13.23
2022-10-22T04:06:33.346Z,10.15
2022-10-22T04:09:05.538Z,10.52
2022-10-22T04:11:36.934Z,10.82
2022-10-22T04:14:04.165Z,11.07
2022-10-22T04:16:32.942Z,9.65
2022-10-22T04:19:00.294Z,10.25
2022-10-22T04:21:28.984Z,12.02
2022-10-22T04:23:56.339Z,11.13
2022-10-22T04:26:29.178Z,13.68
2022-10-22T04:28:56.468Z,11.35
2022-10-22T04:31:26.624Z,12.30
2022-10-22T04:34:00.119Z,12.07
2022-10-22T04:36:32.745Z,15.07
2022-10-22T04:39:01.764Z,12.73
2022-10-22T04:41:38.923Z,16.70
2022-10-22T04:44:12.269Z,11.27
2022-10-22T04:46:46.029Z,15.77
2022-10-22T04:49:13.900Z,12.80
2022-10-22T04:52:32.647Z,15.27
2022-10-22T04:55:01.115Z,15.68
2022-10-22T04:57:32.562Z,13.70
2022-10-22T04:59:59.947Z,11.63
2022-10-22T05:02:29.840Z,10.93
2022-10-22T05:04:57.352Z,15.85
2022-10-22T05:07:26.039Z,16.45
2022-10-22T05:09:56.592Z,16.38
2022-10-22T05:12:26.338Z,15.70
2022-10-22T05:14:56.987Z,12.68
2022-10-22T05:17:24.608Z,17.55
2022-10-22T05:19:55.266Z,12.73
2022-10-22T05:23:14.136Z,14.27
2022-10-22T05:25:41.503Z,15.07
2022-10-22T05:28:08.872Z,15.15
2022-10-22T05:35:20.376Z,13.45
2022-10-22T05:37:47.642Z,14.82
2022-10-22T05:40:26.373Z,19.55
2022-10-22T05:42:55.603Z,12.50
2022-10-22T05:45:22.875Z,12.02
2022-10-22T05:47:50.326Z,12.40
2022-10-22T05:55:09.325Z,13.77
2022-10-22T06:00:42.812Z,14.23
2022-10-22T06:03:10.454Z,14.65
2022-10-22T06:05:41.448Z,12.25
2022-10-22T06:08:41.171Z,12.73
2022-10-22T06:11:25.662Z,13.80
2022-10-22T06:14:05.858Z,11.43
2022-10-22T06:16:36.759Z,12.00
2022-10-22T06:19:06.725Z,14.38
2022-10-22T06:21:41.044Z,12.57
2022-10-22T06:24:11.737Z,13.57
2022-10-22T06:26:49.461Z,11.82
2022-10-22T06:29:16.864Z,13.07
2022-10-22T06:31:48.147Z,11.70
2022-10-22T06:34:19.122Z,10.02
2022-10-22T06:36:50.311Z,10.13
2022-10-22T06:39:18.519Z,13.10
2022-10-22T06:42:59.412Z,12.27
2022-10-22T06:45:33.295Z,9.00
2022-10-22T06:48:03.957Z,11.38
2022-10-22T06:50:34.700Z,11.23
2022-10-22T06:53:12.719Z,8.20
2022-10-22T06:56:23.255Z,10.48
2022-10-22T06:58:57.989Z,13.23
2022-10-22T07:01:35.593Z,8.88
2022-10-22T07:04:19.690Z,10.00
2022-10-22T07:10:30.704Z,8.80
2022-10-22T07:13:00.597Z,10.82
2022-10-22T07:17:59.403Z,9.38
2022-10-22T07:23:19.946Z,5.45
2022-10-22T07:28:30.158Z,7.30
2022-10-22T07:31:21.611Z,10.63
2022-10-22T07:37:28.757Z,8.35
2022-10-22T07:40:16.739Z,9.02
2022-10-22T07:43:26.991Z,7.05
2022-10-22T07:46:24.185Z,5.90
2022-10-22T07:48:57.150Z,8.32
2022-10-22T07:51:29.675Z,5.18
2022-10-22T07:56:33.545Z,4.22
2022-10-22T07:59:05.826Z,7.00
2022-10-22T08:01:42.252Z,6.75
2022-10-22T08:04:14.391Z,4.60
2022-10-22T08:06:47.286Z,5.90
2022-10-22T08:09:18.361Z,4.18
2022-10-22T08:11:49.344Z,6.13
2022-10-22T08:14:18.284Z,12.32
2022-10-22T08:16:46.792Z,8.77
2022-10-22T08:19:32.775Z,14.05
2022-10-22T08:22:13.471Z,9.60
2022-10-22T08:24:49.317Z,6.55
2022-10-22T08:27:17.181Z,6.18
2022-10-22T08:30:16.673Z,7.93
2022-10-22T08:33:28.173Z,13.88
2022-10-22T08:35:58.175Z,6.55
2022-10-22T08:38:28.414Z,7.78
2022-10-22T08:41:08.643Z,8.30
2022-10-22T08:44:00.944Z,12.50
2022-10-22T08:46:43.598Z,12.80
2022-10-22T08:49:23.690Z,7.68
2022-10-22T08:52:08.929Z,17.63
2022-10-22T08:54:57.552Z,7.90
2022-10-22T08:57:52.461Z,8.77
2022-10-22T09:00:38.958Z,8.82
2022-10-22T09:03:15.092Z,6.32
2022-10-22T09:06:14.260Z,7.03
2022-10-22T09:08:44.433Z,11.50
2022-10-22T09:11:19.500Z,8.00
2022-10-22T09:13:48.316Z,8.23
2022-10-22T09:16:18.295Z,7.22
2022-10-22T09:19:03.687Z,8.00
2022-10-22T09:24:44.882Z,6.95
2022-10-22T09:27:32.009Z,6.63
2022-10-22T09:39:01.698Z,11.57
2022-10-22T10:38:29.872Z,9.73
2022-10-22T10:42:50.049Z,5.72
2022-10-22T11:13:05.600Z,3.95
2022-10-22T11:15:45.303Z,9.98
2022-10-22T11:20:25.928Z,6.38
2022-10-22T11:23:18.094Z,9.00
2022-10-22T11:25:28.871Z,6.72
2022-10-22T11:32:30.675Z,5.78
2022-10-22T11:38:51.430Z,6.00
2022-10-22T11:42:06.647Z,4.45
2022-10-22T11:49:55.881Z,5.88
2022-10-22T11:52:53.055Z,9.48
2022-10-22T11:57:15.451Z,6.97
2022-10-22T12:00:33.856Z,4.75
2022-10-22T12:08:03.850Z,5.25
2022-10-22T12:20:07.149Z,7.35
2022-10-22T12:38:19.879Z,10.20
2022-10-22T12:41:05.352Z,5.35
2022-10-22T12:43:35.648Z,7.20
2022-10-22T12:46:11.149Z,8.00
2022-10-22T12:49:03.630Z,6.53
2022-10-22T12:51:55.566Z,10.00
2022-10-22T12:55:02.786Z,4.78
2022-10-22T12:57:36.456Z,4.63
2022-10-22T13:02:31.914Z,7.32
2022-10-22T13:05:27.477Z,4.63
2022-10-22T13:09:02.408Z,3.97
2022-10-22T13:11:48.918Z,3.25
2022-10-22T13:14:35.642Z,4.35
2022-10-22T13:18:06.682Z,2.67
2022-10-22T13:22:14.199Z,2.90
2022-10-22T19:48:38.335Z,9.00
2022-10-22T19:51:10.929Z,12.38
2022-10-22T19:53:45.184Z,10.18
2022-10-22T19:56:30.390Z,14.07
2022-10-22T19:58:59.643Z,12.32
2022-10-22T20:01:29.603Z,9.63
2022-10-22T20:03:58.334Z,10.70
2022-10-22T20:06:26.515Z,13.63
2022-10-22T20:08:56.212Z,11.60
2022-10-22T20:11:27.733Z,14.75
2022-10-22T20:13:58.360Z,10.65
2022-10-22T20:16:31.075Z,16.73
2022-10-22T20:19:04.976Z,14.05
2022-10-22T20:21:35.413Z,13.35
2022-10-22T20:24:05.320Z,12.38
2022-10-22T20:26:32.852Z,13.00
2022-10-22T20:29:03.158Z,7.57
2022-10-22T20:31:31.439Z,11.55
2022-10-22T20:34:02.824Z,13.55
2022-10-22T20:36:32.210Z,13.40
2022-10-22T20:39:02.656Z,10.50
2022-10-22T20:41:36.434Z,9.23
2022-10-22T20:44:06.837Z,11.10
2022-10-22T20:46:35.112Z,11.27
2022-10-22T20:49:06.491Z,8.60
2022-10-22T20:51:47.200Z,14.80
2022-10-22T20:54:23.249Z,13.00
2022-10-22T20:56:59.396Z,13.50
2022-10-22T20:59:35.241Z,13.43
2022-10-22T21:02:13.854Z,13.73
2022-10-22T21:05:02.038Z,14.57
2022-10-22T21:07:29.718Z,13.85
2022-10-22T21:10:06.851Z,11.52
2022-10-22T21:16:26.001Z,15.20
2022-10-22T21:19:01.800Z,14.10
2022-10-22T21:21:30.776Z,11.68
2022-10-22T21:23:58.331Z,10.10
2022-10-22T21:26:28.447Z,12.10
2022-10-22T21:29:00.451Z,12.98
2022-10-22T21:31:28.220Z,11.20
2022-10-22T21:33:59.181Z,12.35
2022-10-22T21:36:26.928Z,13.70
2022-10-22T21:38:55.771Z,10.55
2022-10-22T21:41:55.292Z,9.98
2022-10-22T21:44:22.726Z,10.85
2022-10-22T21:46:59.086Z,8.77
2022-10-22T21:49:29.284Z,9.93
2022-10-22T21:52:01.018Z,8.48
2022-10-22T21:54:37.715Z,10.55
2022-10-22T21:57:13.028Z,10.45
2022-10-22T21:59:50.180Z,10.30
2022-10-22T22:02:22.359Z,10.80
2022-10-22T22:04:56.136Z,11.60
2022-10-22T22:07:23.869Z,10.35
2022-10-22T22:09:54.402Z,11.68
2022-10-22T22:12:25.681Z,11.77
2022-10-22T22:14:56.752Z,9.88
2022-10-22T22:17:29.172Z,12.20
2022-10-22T22:19:56.995Z,12.23
2022-10-22T22:22:26.649Z,10.38
2022-10-22T22:24:57.104Z,7.47
2022-10-22T22:27:35.714Z,14.23
2022-10-22T22:30:04.311Z,12.50
2022-10-22T22:33:32.281Z,11.40
2022-10-22T22:36:05.802Z,9.82
2022-10-22T22:38:35.588Z,9.35
2022-10-22T22:41:05.615Z,11.35
2022-10-22T22:43:33.568Z,9.00
2022-10-22T22:46:08.016Z,10.80
2022-10-22T22:48:40.899Z,10.73
2022-10-22T22:51:08.801Z,9.00
2022-10-22T22:53:39.342Z,11.30
2022-10-22T22:56:15.652Z,12.85
2022-10-22T22:58:47.316Z,10.93
2022-10-22T23:01:31.302Z,10.02
2022-10-22T23:04:27.039Z,10.80
2022-10-22T23:07:03.682Z,11.30
2022-10-22T23:09:33.737Z,11.70
2022-10-22T23:13:24.711Z,12.48
2022-10-22T23:15:54.560Z,11.73
2022-10-22T23:18:24.822Z,11.05
2022-10-22T23:20:56.302Z,13.88
2022-10-22T23:23:24.891Z,12.60
2022-10-22T23:28:27.135Z,14.45
2022-10-22T23:31:06.618Z,12.88
2022-10-22T23:36:07.119Z,13.63
2022-10-22T23:38:46.244Z,10.55
2022-10-22T23:41:17.214Z,13.90
2022-10-22T23:43:45.038Z,16.50
2022-10-22T23:46:18.697Z,12.88
2022-10-22T23:48:51.076Z,9.95
2022-10-22T23:51:25.125Z,12.07
2022-10-22T23:54:02.205Z,13.20
2022-10-22T23:56:32.633Z,15.50
2022-10-22T23:59:02.576Z,12.90
